sensor_id;sensor_type;location;lat;lon;timestamp;temperature;humidity
40053;DHT22;25758;48.200;16.338;2022-08-11T00:01:22;23.10;67.80
40053;DHT22;25758;48.200;16.338;2022-08-11T00:04:02;23.10;67.70
40053;DHT22;25758;48.200;16.338;2022-08-11T00:06:31;23.10;68.00
40053;DHT22;25758;48.200;16.338;2022-08-11T00:08:58;23.00;67.70
40053;DHT22;25758;48.200;16.338;2022-08-11T00:11:36;23.00;67.90
40053;DHT22;25758;48.200;16.338;2022-08-11T00:14:04;23.00;68.00
40053;DHT22;25758;48.200;16.338;2022-08-11T00:16:38;23.00;67.90
40053;DHT22;25758;48.200;16.338;2022-08-11T00:19:04;23.00;67.90
40053;DHT22;25758;48.200;16.338;2022-08-11T00:21:30;23.00;68.20
40053;DHT22;25758;48.200;16.338;2022-08-11T00:23:59;23.00;68.10
40053;DHT22;25758;48.200;16.338;2022-08-11T00:26:25;23.00;68.10
40053;DHT22;25758;48.200;16.338;2022-08-11T00:28:52;22.90;68.00
40053;DHT22;25758;48.200;16.338;2022-08-11T00:31:25;22.90;68.80
40053;DHT22;25758;48.200;16.338;2022-08-11T00:33:52;22.80;69.00
40053;DHT22;25758;48.200;16.338;2022-08-11T00:36:20;22.70;69.20
40053;DHT22;25758;48.200;16.338;2022-08-11T00:38:51;22.70;69.50
40053;DHT22;25758;48.200;16.338;2022-08-11T00:41:43;22.60;69.70
40053;DHT22;25758;48.200;16.338;2022-08-11T00:55:28;22.50;69.70
40053;DHT22;25758;48.200;16.338;2022-08-11T00:58:16;22.50;69.50
40053;DHT22;25758;48.200;16.338;2022-08-11T01:04:22;22.50;69.70
40053;DHT22;25758;48.200;16.338;2022-08-11T01:40:51;22.40;70.20
40053;DHT22;25758;48.200;16.338;2022-08-11T01:46:56;22.30;70.30
40053;DHT22;25758;48.200;16.338;2022-08-11T01:49:41;22.30;70.50
40053;DHT22;25758;48.200;16.338;2022-08-11T01:52:19;22.20;70.90
40053;DHT22;25758;48.200;16.338;2022-08-11T01:55:17;22.10;71.10
40053;DHT22;25758;48.200;16.338;2022-08-11T01:58:11;22.10;71.60
40053;DHT22;25758;48.200;16.338;2022-08-11T02:03:42;21.90;72.00
40053;DHT22;25758;48.200;16.338;2022-08-11T02:06:16;21.90;72.20
40053;DHT22;25758;48.200;16.338;2022-08-11T02:12:02;21.90;72.30
40053;DHT22;25758;48.200;16.338;2022-08-11T02:14:52;21.80;72.60
40053;DHT22;25758;48.200;16.338;2022-08-11T02:20:39;21.70;73.10
40053;DHT22;25758;48.200;16.338;2022-08-11T02:23:50;21.70;72.80
40053;DHT22;25758;48.200;16.338;2022-08-11T02:29:53;21.80;72.80
40053;DHT22;25758;48.200;16.338;2022-08-11T02:32:27;21.80;72.90
40053;DHT22;25758;48.200;16.338;2022-08-11T02:35:31;21.80;72.60
40053;DHT22;25758;48.200;16.338;2022-08-11T02:47:12;21.70;73.00
40053;DHT22;25758;48.200;16.338;2022-08-11T02:50:01;21.70;73.20
40053;DHT22;25758;48.200;16.338;2022-08-11T02:52:40;21.70;73.30
40053;DHT22;25758;48.200;16.338;2022-08-11T02:55:20;21.60;73.60
40053;DHT22;25758;48.200;16.338;2022-08-11T02:58:02;21.60;73.40
40053;DHT22;25758;48.200;16.338;2022-08-11T03:00:49;21.70;73.50
40053;DHT22;25758;48.200;16.338;2022-08-11T03:03:20;21.60;73.80
40053;DHT22;25758;48.200;16.338;2022-08-11T03:06:22;21.60;73.70
40053;DHT22;25758;48.200;16.338;2022-08-11T03:15:06;21.50;73.90
40053;DHT22;25758;48.200;16.338;2022-08-11T03:18:23;21.50;74.10
40053;DHT22;25758;48.200;16.338;2022-08-11T03:23:43;21.40;74.30
40053;DHT22;25758;48.200;16.338;2022-08-11T03:26:40;21.30;74.40
40053;DHT22;25758;48.200;16.338;2022-08-11T03:29:30;21.30;74.40
40053;DHT22;25758;48.200;16.338;2022-08-11T03:34:43;21.30;74.20
40053;DHT22;25758;48.200;16.338;2022-08-11T03:37:40;21.20;74.40
40053;DHT22;25758;48.200;16.338;2022-08-11T03:46:11;21.20;75.00
40053;DHT22;25758;48.200;16.338;2022-08-11T03:49:08;21.10;75.10
40053;DHT22;25758;48.200;16.338;2022-08-11T03:57:49;21.10;75.40
40053;DHT22;25758;48.200;16.338;2022-08-11T04:29:45;21.10;74.80
40053;DHT22;25758;48.200;16.338;2022-08-11T04:46:06;21.10;74.90
40053;DHT22;25758;48.200;16.338;2022-08-11T04:58:24;21.10;74.90
40053;DHT22;25758;48.200;16.338;2022-08-11T05:01:39;21.20;74.60
40053;DHT22;25758;48.200;16.338;2022-08-11T05:15:46;21.20;74.00
40053;DHT22;25758;48.200;16.338;2022-08-11T05:18:32;21.20;74.00
40053;DHT22;25758;48.200;16.338;2022-08-11T05:21:19;21.20;73.70
40053;DHT22;25758;48.200;16.338;2022-08-11T05:24:16;21.20;73.70
40053;DHT22;25758;48.200;16.338;2022-08-11T05:27:04;21.30;73.70
40053;DHT22;25758;48.200;16.338;2022-08-11T05:32:42;21.30;73.70
40053;DHT22;25758;48.200;16.338;2022-08-11T05:35:42;21.30;73.50
40053;DHT22;25758;48.200;16.338;2022-08-11T05:38:24;21.30;73.60
40053;DHT22;25758;48.200;16.338;2022-08-11T05:41:13;21.30;73.30
40053;DHT22;25758;48.200;16.338;2022-08-11T05:44:02;21.30;72.80
40053;DHT22;25758;48.200;16.338;2022-08-11T05:46:48;21.30;72.90
40053;DHT22;25758;48.200;16.338;2022-08-11T05:49:33;21.30;73.00
40053;DHT22;25758;48.200;16.338;2022-08-11T05:52:27;21.30;73.20
40053;DHT22;25758;48.200;16.338;2022-08-11T05:55:13;21.30;73.20
40053;DHT22;25758;48.200;16.338;2022-08-11T05:58:03;21.40;73.30
40053;DHT22;25758;48.200;16.338;2022-08-11T06:00:30;21.40;73.00
40053;DHT22;25758;48.200;16.338;2022-08-11T06:03:00;21.40;73.00
40053;DHT22;25758;48.200;16.338;2022-08-11T06:05:36;21.40;73.10
40053;DHT22;25758;48.200;16.338;2022-08-11T06:08:04;21.40;73.10
40053;DHT22;25758;48.200;16.338;2022-08-11T06:10:32;21.50;73.10
40053;DHT22;25758;48.200;16.338;2022-08-11T06:12:59;21.50;72.70
40053;DHT22;25758;48.200;16.338;2022-08-11T06:15:26;21.50;72.80
40053;DHT22;25758;48.200;16.338;2022-08-11T06:17:54;21.40;73.00
40053;DHT22;25758;48.200;16.338;2022-08-11T06:20:21;21.50;73.00
40053;DHT22;25758;48.200;16.338;2022-08-11T06:22:56;21.50;73.00
40053;DHT22;25758;48.200;16.338;2022-08-11T06:25:29;21.50;72.80
40053;DHT22;25758;48.200;16.338;2022-08-11T06:27:56;21.50;72.70
40053;DHT22;25758;48.200;16.338;2022-08-11T06:30:43;21.50;72.90
40053;DHT22;25758;48.200;16.338;2022-08-11T06:39:17;21.60;72.90
40053;DHT22;25758;48.200;16.338;2022-08-11T06:41:50;21.60;73.10
40053;DHT22;25758;48.200;16.338;2022-08-11T06:44:29;21.60;72.90
40053;DHT22;25758;48.200;16.338;2022-08-11T06:47:04;21.60;72.90
40053;DHT22;25758;48.200;16.338;2022-08-11T06:49:34;21.60;72.90
40053;DHT22;25758;48.200;16.338;2022-08-11T06:52:36;21.70;73.10
40053;DHT22;25758;48.200;16.338;2022-08-11T06:55:28;21.70;72.90
40053;DHT22;25758;48.200;16.338;2022-08-11T06:58:16;21.70;73.10
40053;DHT22;25758;48.200;16.338;2022-08-11T07:01:10;21.70;73.10
40053;DHT22;25758;48.200;16.338;2022-08-11T07:03:43;21.70;73.20
40053;DHT22;25758;48.200;16.338;2022-08-11T07:12:13;21.80;73.20
40053;DHT22;25758;48.200;16.338;2022-08-11T07:15:22;21.80;73.20
40053;DHT22;25758;48.200;16.338;2022-08-11T07:18:25;21.90;73.30
40053;DHT22;25758;48.200;16.338;2022-08-11T07:21:31;21.90;73.30
40053;DHT22;25758;48.200;16.338;2022-08-11T07:24:26;21.90;73.30
40053;DHT22;25758;48.200;16.338;2022-08-11T07:27:16;22.00;73.30
40053;DHT22;25758;48.200;16.338;2022-08-11T07:30:10;22.00;73.20
40053;DHT22;25758;48.200;16.338;2022-08-11T07:32:44;22.10;73.30
40053;DHT22;25758;48.200;16.338;2022-08-11T07:35:15;22.20;73.00
40053;DHT22;25758;48.200;16.338;2022-08-11T07:37:49;22.20;73.00
40053;DHT22;25758;48.200;16.338;2022-08-11T07:40:19;22.40;72.90
40053;DHT22;25758;48.200;16.338;2022-08-11T07:42:45;22.40;72.70
40053;DHT22;25758;48.200;16.338;2022-08-11T07:45:12;22.50;72.60
40053;DHT22;25758;48.200;16.338;2022-08-11T07:47:57;22.60;72.40
40053;DHT22;25758;48.200;16.338;2022-08-11T07:50:42;22.70;72.30
40053;DHT22;25758;48.200;16.338;2022-08-11T07:53:27;22.90;71.80
40053;DHT22;25758;48.200;16.338;2022-08-11T07:55:58;23.30;71.30
40053;DHT22;25758;48.200;16.338;2022-08-11T07:58:25;23.80;70.80
40053;DHT22;25758;48.200;16.338;2022-08-11T08:01:11;24.20;69.60
40053;DHT22;25758;48.200;16.338;2022-08-11T08:03:58;24.80;68.20
40053;DHT22;25758;48.200;16.338;2022-08-11T08:06:43;25.20;67.20
40053;DHT22;25758;48.200;16.338;2022-08-11T08:09:28;25.70;66.00
40053;DHT22;25758;48.200;16.338;2022-08-11T08:12:19;26.10;65.20
40053;DHT22;25758;48.200;16.338;2022-08-11T08:15:10;26.50;65.10
40053;DHT22;25758;48.200;16.338;2022-08-11T08:17:57;26.90;64.20
40053;DHT22;25758;48.200;16.338;2022-08-11T08:20:30;27.10;63.40
40053;DHT22;25758;48.200;16.338;2022-08-11T08:22:57;27.40;62.90
40053;DHT22;25758;48.200;16.338;2022-08-11T08:25:29;27.60;62.40
40053;DHT22;25758;48.200;16.338;2022-08-11T08:27:58;27.80;62.10
40053;DHT22;25758;48.200;16.338;2022-08-11T08:30:26;27.90;62.10
40053;DHT22;25758;48.200;16.338;2022-08-11T08:33:21;28.10;61.60
40053;DHT22;25758;48.200;16.338;2022-08-11T08:36:00;28.20;61.40
40053;DHT22;25758;48.200;16.338;2022-08-11T08:38:49;28.40;60.70
40053;DHT22;25758;48.200;16.338;2022-08-11T08:41:20;28.60;61.00
40053;DHT22;25758;48.200;16.338;2022-08-11T08:43:49;28.60;60.20
40053;DHT22;25758;48.200;16.338;2022-08-11T08:46:20;28.80;60.40
40053;DHT22;25758;48.200;16.338;2022-08-11T08:48:48;29.10;59.90
40053;DHT22;25758;48.200;16.338;2022-08-11T08:51:15;29.10;59.30
40053;DHT22;25758;48.200;16.338;2022-08-11T08:54:03;29.40;59.20
40053;DHT22;25758;48.200;16.338;2022-08-11T08:56:30;29.50;59.20
40053;DHT22;25758;48.200;16.338;2022-08-11T08:59:00;29.70;59.20
40053;DHT22;25758;48.200;16.338;2022-08-11T09:01:34;29.90;59.10
40053;DHT22;25758;48.200;16.338;2022-08-11T09:04:02;30.00;59.80
40053;DHT22;25758;48.200;16.338;2022-08-11T09:06:30;30.00;59.00
40053;DHT22;25758;48.200;16.338;2022-08-11T09:08:56;30.20;58.40
40053;DHT22;25758;48.200;16.338;2022-08-11T09:11:22;30.20;58.40
40053;DHT22;25758;48.200;16.338;2022-08-11T09:14:07;30.30;58.00
40053;DHT22;25758;48.200;16.338;2022-08-11T09:16:34;30.20;57.00
40053;DHT22;25758;48.200;16.338;2022-08-11T09:19:01;30.20;57.50
40053;DHT22;25758;48.200;16.338;2022-08-11T09:21:28;30.30;57.60
40053;DHT22;25758;48.200;16.338;2022-08-11T09:23:56;30.30;56.60
40053;DHT22;25758;48.200;16.338;2022-08-11T09:26:42;30.30;56.80
40053;DHT22;25758;48.200;16.338;2022-08-11T09:29:29;30.30;56.80
40053;DHT22;25758;48.200;16.338;2022-08-11T09:31:57;30.40;56.90
40053;DHT22;25758;48.200;16.338;2022-08-11T09:34:24;30.60;57.80
40053;DHT22;25758;48.200;16.338;2022-08-11T09:36:51;30.60;56.50
40053;DHT22;25758;48.200;16.338;2022-08-11T09:39:37;30.70;56.60
40053;DHT22;25758;48.200;16.338;2022-08-11T09:42:22;30.10;55.70
40053;DHT22;25758;48.200;16.338;2022-08-11T09:45:10;30.00;55.90
40053;DHT22;25758;48.200;16.338;2022-08-11T09:47:37;30.20;56.40
40053;DHT22;25758;48.200;16.338;2022-08-11T09:50:04;30.30;54.90
40053;DHT22;25758;48.200;16.338;2022-08-11T09:52:35;30.30;54.70
40053;DHT22;25758;48.200;16.338;2022-08-11T09:55:04;30.40;55.70
40053;DHT22;25758;48.200;16.338;2022-08-11T09:57:44;30.50;55.60
40053;DHT22;25758;48.200;16.338;2022-08-11T10:00:31;30.60;55.70
40053;DHT22;25758;48.200;16.338;2022-08-11T10:02:57;30.60;55.40
40053;DHT22;25758;48.200;16.338;2022-08-11T10:05:25;30.20;54.40
40053;DHT22;25758;48.200;16.338;2022-08-11T10:08:11;29.70;54.50
40053;DHT22;25758;48.200;16.338;2022-08-11T10:10:39;29.60;55.50
40053;DHT22;25758;48.200;16.338;2022-08-11T10:13:10;29.60;54.80
40053;DHT22;25758;48.200;16.338;2022-08-11T10:15:38;29.60;54.90
40053;DHT22;25758;48.200;16.338;2022-08-11T10:18:09;29.70;54.90
40053;DHT22;25758;48.200;16.338;2022-08-11T10:21:00;29.60;55.40
40053;DHT22;25758;48.200;16.338;2022-08-11T10:23:29;29.70;55.70
40053;DHT22;25758;48.200;16.338;2022-08-11T10:26:14;30.00;54.60
40053;DHT22;25758;48.200;16.338;2022-08-11T10:29:00;29.80;53.80
40053;DHT22;25758;48.200;16.338;2022-08-11T10:31:27;30.00;53.90
40053;DHT22;25758;48.200;16.338;2022-08-11T10:34:11;30.10;53.70
40053;DHT22;25758;48.200;16.338;2022-08-11T10:36:43;30.10;53.10
40053;DHT22;25758;48.200;16.338;2022-08-11T10:39:22;29.90;53.00
40053;DHT22;25758;48.200;16.338;2022-08-11T10:41:48;29.90;53.10
40053;DHT22;25758;48.200;16.338;2022-08-11T10:44:40;30.20;53.30
40053;DHT22;25758;48.200;16.338;2022-08-11T10:47:07;30.40;52.30
40053;DHT22;25758;48.200;16.338;2022-08-11T10:49:53;30.00;52.70
40053;DHT22;25758;48.200;16.338;2022-08-11T10:52:39;29.90;53.10
40053;DHT22;25758;48.200;16.338;2022-08-11T10:55:24;30.20;53.00
40053;DHT22;25758;48.200;16.338;2022-08-11T10:58:10;30.10;52.50
40053;DHT22;25758;48.200;16.338;2022-08-11T11:00:54;30.20;52.40
40053;DHT22;25758;48.200;16.338;2022-08-11T11:03:27;30.30;52.30
40053;DHT22;25758;48.200;16.338;2022-08-11T11:06:00;30.30;52.40
40053;DHT22;25758;48.200;16.338;2022-08-11T11:08:29;30.10;52.60
40053;DHT22;25758;48.200;16.338;2022-08-11T11:11:15;29.90;52.20
40053;DHT22;25758;48.200;16.338;2022-08-11T11:13:46;30.20;51.60
40053;DHT22;25758;48.200;16.338;2022-08-11T11:16:32;29.90;51.10
40053;DHT22;25758;48.200;16.338;2022-08-11T11:19:16;30.00;52.10
40053;DHT22;25758;48.200;16.338;2022-08-11T11:21:46;30.10;51.00
40053;DHT22;25758;48.200;16.338;2022-08-11T11:24:29;30.10;50.30
40053;DHT22;25758;48.200;16.338;2022-08-11T11:27:08;29.70;51.20
40053;DHT22;25758;48.200;16.338;2022-08-11T11:30:07;29.70;51.50
40053;DHT22;25758;48.200;16.338;2022-08-11T11:32:48;29.60;51.90
40053;DHT22;25758;48.200;16.338;2022-08-11T11:37:59;29.60;52.40
40053;DHT22;25758;48.200;16.338;2022-08-11T11:40:26;29.50;51.40
40053;DHT22;25758;48.200;16.338;2022-08-11T11:42:55;29.60;52.00
40053;DHT22;25758;48.200;16.338;2022-08-11T11:45:23;29.60;51.10
40053;DHT22;25758;48.200;16.338;2022-08-11T11:47:51;29.70;51.00
40053;DHT22;25758;48.200;16.338;2022-08-11T11:50:30;29.70;50.90
40053;DHT22;25758;48.200;16.338;2022-08-11T11:52:57;29.60;50.40
40053;DHT22;25758;48.200;16.338;2022-08-11T11:55:25;29.60;50.60
40053;DHT22;25758;48.200;16.338;2022-08-11T11:57:52;29.50;50.00
40053;DHT22;25758;48.200;16.338;2022-08-11T12:00:38;29.30;51.10
40053;DHT22;25758;48.200;16.338;2022-08-11T12:03:23;29.20;51.10
40053;DHT22;25758;48.200;16.338;2022-08-11T12:05:50;29.20;50.80
40053;DHT22;25758;48.200;16.338;2022-08-11T12:08:18;29.00;51.30
40053;DHT22;25758;48.200;16.338;2022-08-11T12:10:53;28.90;51.50
40053;DHT22;25758;48.200;16.338;2022-08-11T12:13:43;28.80;50.80
40053;DHT22;25758;48.200;16.338;2022-08-11T12:16:11;28.60;51.40
40053;DHT22;25758;48.200;16.338;2022-08-11T12:18:39;28.50;51.20
40053;DHT22;25758;48.200;16.338;2022-08-11T12:21:06;28.40;51.40
40053;DHT22;25758;48.200;16.338;2022-08-11T12:23:34;28.50;51.50
40053;DHT22;25758;48.200;16.338;2022-08-11T12:26:19;28.40;51.50
40053;DHT22;25758;48.200;16.338;2022-08-11T12:29:06;28.30;51.80
40053;DHT22;25758;48.200;16.338;2022-08-11T12:31:33;28.30;52.00
40053;DHT22;25758;48.200;16.338;2022-08-11T12:34:07;28.30;51.70
40053;DHT22;25758;48.200;16.338;2022-08-11T12:36:42;28.20;51.60
40053;DHT22;25758;48.200;16.338;2022-08-11T12:39:19;28.10;52.50
40053;DHT22;25758;48.200;16.338;2022-08-11T12:42:06;28.10;51.30
40053;DHT22;25758;48.200;16.338;2022-08-11T12:44:51;28.10;52.40
40053;DHT22;25758;48.200;16.338;2022-08-11T12:47:37;28.00;51.00
40053;DHT22;25758;48.200;16.338;2022-08-11T12:50:22;28.00;51.90
40053;DHT22;25758;48.200;16.338;2022-08-11T12:53:08;28.00;52.50
40053;DHT22;25758;48.200;16.338;2022-08-11T12:55:36;28.00;51.80
40053;DHT22;25758;48.200;16.338;2022-08-11T12:58:21;28.00;50.80
40053;DHT22;25758;48.200;16.338;2022-08-11T13:00:47;28.10;51.10
40053;DHT22;25758;48.200;16.338;2022-08-11T13:03:33;28.10;52.30
40053;DHT22;25758;48.200;16.338;2022-08-11T13:06:18;28.10;49.60
40053;DHT22;25758;48.200;16.338;2022-08-11T13:08:47;28.10;50.80
40053;DHT22;25758;48.200;16.338;2022-08-11T13:11:15;28.10;52.10
40053;DHT22;25758;48.200;16.338;2022-08-11T13:14:00;28.20;49.90
40053;DHT22;25758;48.200;16.338;2022-08-11T13:16:34;28.20;52.70
40053;DHT22;25758;48.200;16.338;2022-08-11T13:19:21;28.30;50.90
40053;DHT22;25758;48.200;16.338;2022-08-11T13:21:51;28.30;48.70
40053;DHT22;25758;48.200;16.338;2022-08-11T13:24:17;28.30;49.50
40053;DHT22;25758;48.200;16.338;2022-08-11T13:26:45;28.30;50.60
40053;DHT22;25758;48.200;16.338;2022-08-11T13:29:13;28.20;51.90
40053;DHT22;25758;48.200;16.338;2022-08-11T13:31:39;28.20;51.00
40053;DHT22;25758;48.200;16.338;2022-08-11T13:34:07;28.20;51.50
40053;DHT22;25758;48.200;16.338;2022-08-11T13:36:34;28.20;50.90
40053;DHT22;25758;48.200;16.338;2022-08-11T13:39:02;28.30;50.70
40053;DHT22;25758;48.200;16.338;2022-08-11T13:41:28;28.20;51.10
40053;DHT22;25758;48.200;16.338;2022-08-11T13:44:12;28.20;51.60
40053;DHT22;25758;48.200;16.338;2022-08-11T13:46:40;28.20;52.10
40053;DHT22;25758;48.200;16.338;2022-08-11T13:49:08;28.10;51.50
40053;DHT22;25758;48.200;16.338;2022-08-11T13:51:38;28.00;51.90
40053;DHT22;25758;48.200;16.338;2022-08-11T13:54:11;28.00;51.70
40053;DHT22;25758;48.200;16.338;2022-08-11T13:56:44;28.00;51.50
40053;DHT22;25758;48.200;16.338;2022-08-11T13:59:12;28.00;52.20
40053;DHT22;25758;48.200;16.338;2022-08-11T14:01:47;27.90;52.20
40053;DHT22;25758;48.200;16.338;2022-08-11T14:04:27;27.90;52.70
40053;DHT22;25758;48.200;16.338;2022-08-11T14:06:55;27.90;52.60
40053;DHT22;25758;48.200;16.338;2022-08-11T14:09:27;27.80;53.00
40053;DHT22;25758;48.200;16.338;2022-08-11T14:12:00;27.90;53.20
40053;DHT22;25758;48.200;16.338;2022-08-11T14:15:00;27.80;53.60
40053;DHT22;25758;48.200;16.338;2022-08-11T14:17:29;27.80;53.10
40053;DHT22;25758;48.200;16.338;2022-08-11T14:19:57;27.80;53.70
40053;DHT22;25758;48.200;16.338;2022-08-11T14:22:27;27.80;53.10
40053;DHT22;25758;48.200;16.338;2022-08-11T14:24:53;27.70;53.40
40053;DHT22;25758;48.200;16.338;2022-08-11T14:27:20;27.80;54.00
40053;DHT22;25758;48.200;16.338;2022-08-11T14:29:51;27.70;53.70
40053;DHT22;25758;48.200;16.338;2022-08-11T14:32:19;27.70;54.10
40053;DHT22;25758;48.200;16.338;2022-08-11T14:34:45;27.70;54.00
40053;DHT22;25758;48.200;16.338;2022-08-11T14:37:18;27.70;53.80
40053;DHT22;25758;48.200;16.338;2022-08-11T14:39:51;27.70;53.40
40053;DHT22;25758;48.200;16.338;2022-08-11T14:42:19;27.70;53.50
40053;DHT22;25758;48.200;16.338;2022-08-11T14:45:06;27.60;54.20
40053;DHT22;25758;48.200;16.338;2022-08-11T14:47:55;27.60;54.20
40053;DHT22;25758;48.200;16.338;2022-08-11T14:50:24;27.60;53.70
40053;DHT22;25758;48.200;16.338;2022-08-11T14:53:05;27.60;53.70
40053;DHT22;25758;48.200;16.338;2022-08-11T14:55:35;27.70;54.30
40053;DHT22;25758;48.200;16.338;2022-08-11T14:58:23;27.70;54.50
40053;DHT22;25758;48.200;16.338;2022-08-11T15:01:00;27.70;54.50
40053;DHT22;25758;48.200;16.338;2022-08-11T15:03:30;27.60;53.70
40053;DHT22;25758;48.200;16.338;2022-08-11T15:06:01;27.60;53.70
40053;DHT22;25758;48.200;16.338;2022-08-11T15:08:32;27.50;53.90
40053;DHT22;25758;48.200;16.338;2022-08-11T15:11:18;27.50;54.00
40053;DHT22;25758;48.200;16.338;2022-08-11T15:14:05;27.50;54.40
40053;DHT22;25758;48.200;16.338;2022-08-11T15:16:31;27.40;54.50
40053;DHT22;25758;48.200;16.338;2022-08-11T15:19:16;27.30;54.70
40053;DHT22;25758;48.200;16.338;2022-08-11T15:21:46;27.30;54.50
40053;DHT22;25758;48.200;16.338;2022-08-11T15:24:30;27.20;54.50
40053;DHT22;25758;48.200;16.338;2022-08-11T15:26:59;27.10;54.80
40053;DHT22;25758;48.200;16.338;2022-08-11T15:29:45;27.10;54.90
40053;DHT22;25758;48.200;16.338;2022-08-11T15:32:31;27.00;55.00
40053;DHT22;25758;48.200;16.338;2022-08-11T15:35:17;26.90;54.90
40053;DHT22;25758;48.200;16.338;2022-08-11T15:38:03;26.90;55.10
40053;DHT22;25758;48.200;16.338;2022-08-11T15:40:35;26.90;55.10
40053;DHT22;25758;48.200;16.338;2022-08-11T15:46:30;26.80;56.00
40053;DHT22;25758;48.200;16.338;2022-08-11T15:49:00;26.80;55.90
40053;DHT22;25758;48.200;16.338;2022-08-11T15:51:33;26.70;56.30
40053;DHT22;25758;48.200;16.338;2022-08-11T15:54:04;26.70;56.30
40053;DHT22;25758;48.200;16.338;2022-08-11T15:56:35;26.70;56.40
40053;DHT22;25758;48.200;16.338;2022-08-11T15:59:03;26.70;56.50
40053;DHT22;25758;48.200;16.338;2022-08-11T16:01:50;26.70;56.50
40053;DHT22;25758;48.200;16.338;2022-08-11T16:04:37;26.60;56.40
40053;DHT22;25758;48.200;16.338;2022-08-11T16:07:11;26.60;56.40
40053;DHT22;25758;48.200;16.338;2022-08-11T16:09:56;26.50;56.60
40053;DHT22;25758;48.200;16.338;2022-08-11T16:12:25;26.40;56.40
40053;DHT22;25758;48.200;16.338;2022-08-11T16:15:03;26.40;56.40
40053;DHT22;25758;48.200;16.338;2022-08-11T16:17:51;26.40;57.10
40053;DHT22;25758;48.200;16.338;2022-08-11T16:20:21;26.20;57.30
40053;DHT22;25758;48.200;16.338;2022-08-11T16:22:48;26.20;57.70
40053;DHT22;25758;48.200;16.338;2022-08-11T16:25:19;26.20;58.30
40053;DHT22;25758;48.200;16.338;2022-08-11T16:27:54;26.10;57.50
40053;DHT22;25758;48.200;16.338;2022-08-11T16:30:22;26.20;57.40
40053;DHT22;25758;48.200;16.338;2022-08-11T16:32:50;26.10;57.60
40053;DHT22;25758;48.200;16.338;2022-08-11T16:35:19;26.20;57.70
40053;DHT22;25758;48.200;16.338;2022-08-11T16:38:05;26.20;57.90
40053;DHT22;25758;48.200;16.338;2022-08-11T16:40:51;26.10;57.60
40053;DHT22;25758;48.200;16.338;2022-08-11T16:43:21;26.10;57.50
40053;DHT22;25758;48.200;16.338;2022-08-11T16:46:07;26.10;57.40
40053;DHT22;25758;48.200;16.338;2022-08-11T16:48:52;26.00;57.40
40053;DHT22;25758;48.200;16.338;2022-08-11T16:51:19;26.00;57.10
40053;DHT22;25758;48.200;16.338;2022-08-11T16:53:46;26.00;57.20
40053;DHT22;25758;48.200;16.338;2022-08-11T16:56:15;26.00;57.20
40053;DHT22;25758;48.200;16.338;2022-08-11T16:58:42;25.90;57.10
40053;DHT22;25758;48.200;16.338;2022-08-11T17:01:28;25.80;57.10
40053;DHT22;25758;48.200;16.338;2022-08-11T17:03:59;25.80;57.20
40053;DHT22;25758;48.200;16.338;2022-08-11T17:06:46;25.80;57.30
40053;DHT22;25758;48.200;16.338;2022-08-11T17:09:34;25.70;57.10
40053;DHT22;25758;48.200;16.338;2022-08-11T17:12:24;25.70;57.10
40053;DHT22;25758;48.200;16.338;2022-08-11T17:15:19;25.70;56.90
40053;DHT22;25758;48.200;16.338;2022-08-11T17:18:06;25.70;56.60
40053;DHT22;25758;48.200;16.338;2022-08-11T17:20:35;25.70;56.70
40053;DHT22;25758;48.200;16.338;2022-08-11T17:23:03;25.60;56.00
40053;DHT22;25758;48.200;16.338;2022-08-11T17:25:50;25.60;56.20
40053;DHT22;25758;48.200;16.338;2022-08-11T17:28:18;25.60;56.40
40053;DHT22;25758;48.200;16.338;2022-08-11T17:30:45;25.60;56.40
40053;DHT22;25758;48.200;16.338;2022-08-11T17:33:32;25.50;55.70
40053;DHT22;25758;48.200;16.338;2022-08-11T17:36:19;25.60;55.90
40053;DHT22;25758;48.200;16.338;2022-08-11T17:38:46;25.50;55.50
40053;DHT22;25758;48.200;16.338;2022-08-11T17:41:14;25.50;55.30
40053;DHT22;25758;48.200;16.338;2022-08-11T17:43:59;25.50;55.30
40053;DHT22;25758;48.200;16.338;2022-08-11T17:46:45;25.50;55.30
40053;DHT22;25758;48.200;16.338;2022-08-11T17:49:31;25.50;55.00
40053;DHT22;25758;48.200;16.338;2022-08-11T17:52:02;25.50;54.80
40053;DHT22;25758;48.200;16.338;2022-08-11T17:54:49;25.50;55.10
40053;DHT22;25758;48.200;16.338;2022-08-11T17:57:35;25.40;54.80
40053;DHT22;25758;48.200;16.338;2022-08-11T18:00:21;25.40;55.00
40053;DHT22;25758;48.200;16.338;2022-08-11T18:02:47;25.40;55.10
40053;DHT22;25758;48.200;16.338;2022-08-11T18:05:36;25.40;55.30
40053;DHT22;25758;48.200;16.338;2022-08-11T18:08:05;25.40;55.20
40053;DHT22;25758;48.200;16.338;2022-08-11T18:10:52;25.30;55.10
40053;DHT22;25758;48.200;16.338;2022-08-11T18:13:39;25.30;55.30
40053;DHT22;25758;48.200;16.338;2022-08-11T18:16:25;25.30;55.50
40053;DHT22;25758;48.200;16.338;2022-08-11T18:19:09;25.30;55.60
40053;DHT22;25758;48.200;16.338;2022-08-11T18:22:00;25.20;55.60
40053;DHT22;25758;48.200;16.338;2022-08-11T18:24:52;25.30;55.70
40053;DHT22;25758;48.200;16.338;2022-08-11T18:27:41;25.20;55.70
40053;DHT22;25758;48.200;16.338;2022-08-11T18:30:27;25.20;55.90
40053;DHT22;25758;48.200;16.338;2022-08-11T18:33:13;25.20;55.80
40053;DHT22;25758;48.200;16.338;2022-08-11T18:36:00;25.20;56.20
40053;DHT22;25758;48.200;16.338;2022-08-11T18:38:46;25.10;56.00
40053;DHT22;25758;48.200;16.338;2022-08-11T18:41:34;25.10;56.10
40053;DHT22;25758;48.200;16.338;2022-08-11T18:44:19;25.00;55.90
40053;DHT22;25758;48.200;16.338;2022-08-11T18:47:10;25.00;55.80
40053;DHT22;25758;48.200;16.338;2022-08-11T18:49:56;25.00;56.00
40053;DHT22;25758;48.200;16.338;2022-08-11T18:52:42;24.90;56.20
40053;DHT22;25758;48.200;16.338;2022-08-11T18:55:28;24.90;56.40
40053;DHT22;25758;48.200;16.338;2022-08-11T18:58:14;24.90;56.60
40053;DHT22;25758;48.200;16.338;2022-08-11T19:01:01;24.90;56.80
40053;DHT22;25758;48.200;16.338;2022-08-11T19:03:46;24.80;57.50
40053;DHT22;25758;48.200;16.338;2022-08-11T19:06:33;24.80;57.10
40053;DHT22;25758;48.200;16.338;2022-08-11T19:09:19;24.80;57.30
40053;DHT22;25758;48.200;16.338;2022-08-11T19:12:07;24.70;57.20
40053;DHT22;25758;48.200;16.338;2022-08-11T19:14:56;24.70;57.30
40053;DHT22;25758;48.200;16.338;2022-08-11T19:17:42;24.70;57.60
40053;DHT22;25758;48.200;16.338;2022-08-11T19:20:30;24.60;57.60
40053;DHT22;25758;48.200;16.338;2022-08-11T19:23:17;24.60;57.70
40053;DHT22;25758;48.200;16.338;2022-08-11T19:26:04;24.60;57.80